Time;durP1;ratioP1;P1;durP2;ratioP2;P2;SDS_P1;SDS_P2;PMS_P1;PMS_P2;Temp;Humidity;BMP_temperature;BMP_pressure;BME280_temperature;BME280_humidity;BME280_pressure;Samples;Min_cycle;Max_cycle;Signal;HPM_P1;HPM_P2
2022/06/09 00:01:21;;;;;;;0.00;0.00;;;14.70;90.40;;;;;;5030704;28;20156;-71
2022/06/09 00:03:52;;;;;;;0.00;0.00;;;14.70;90.40;;;;;;5031873;28;20049;-71
2022/06/09 00:06:18;;;;;;;0.00;0.00;;;14.70;90.40;;;;;;5036109;28;20049;-71
2022/06/09 00:08:49;;;;;;;0.00;0.00;;;14.70;90.40;;;;;;5031613;28;20409;-71
2022/06/09 00:11:19;;;;;;;0.00;0.00;;;14.60;90.40;;;;;;5021513;28;20071;-71
2022/06/09 00:13:45;;;;;;;0.10;0.10;;;14.60;90.30;;;;;;5041111;28;20034;-71
2022/06/09 00:16:12;;;;;;;0.00;0.00;;;14.60;90.40;;;;;;5030453;28;20045;-71
2022/06/09 00:18:38;;;;;;;0.00;0.00;;;14.60;90.30;;;;;;5024193;28;20144;-71
2022/06/09 00:21:04;;;;;;;0.00;0.00;;;14.60;90.40;;;;;;5045927;28;20484;-71
2022/06/09 00:23:30;;;;;;;0.00;0.00;;;14.50;90.30;;;;;;5031700;28;20155;-72
2022/06/09 00:25:55;;;;;;;0.00;0.00;;;14.50;90.50;;;;;;5031611;28;20059;-71
2022/06/09 00:28:21;;;;;;;0.15;0.15;;;14.50;90.50;;;;;;5031211;28;20048;-71
2022/06/09 00:30:47;;;;;;;0.03;0.03;;;14.50;90.70;;;;;;5041097;28;20056;-71
2022/06/09 00:33:13;;;;;;;0.00;0.00;;;14.40;90.70;;;;;;5036370;28;20044;-72
2022/06/09 00:35:39;;;;;;;0.00;0.00;;;14.40;90.80;;;;;;5036248;28;20038;-72
2022/06/09 00:38:05;;;;;;;0.00;0.00;;;14.40;90.90;;;;;;5029309;28;20165;-72
2022/06/09 00:40:32;;;;;;;0.00;0.00;;;14.40;90.80;;;;;;5031441;28;20096;-72
2022/06/09 00:43:03;;;;;;;0.00;0.00;;;14.30;90.80;;;;;;5030121;28;20048;-72
2022/06/09 00:45:38;;;;;;;0.00;0.00;;;14.30;90.70;;;;;;5031580;28;20156;-72
2022/06/09 00:48:25;;;;;;;0.10;0.10;;;14.30;90.70;;;;;;5026385;28;20045;-72
2022/06/09 00:50:59;;;;;;;0.00;0.00;;;14.30;90.70;;;;;;5023451;28;20041;-72
2022/06/09 00:53:31;;;;;;;0.00;0.00;;;14.20;90.70;;;;;;5034038;28;20041;-71
2022/06/09 00:55:59;;;;;;;0.00;0.00;;;14.20;90.60;;;;;;5041124;28;20084;-71
2022/06/09 00:58:27;;;;;;;0.00;0.00;;;14.30;90.60;;;;;;5024640;28;20057;-71
2022/06/09 01:01:00;;;;;;;0.00;0.00;;;14.30;90.60;;;;;;5030839;28;20053;-71
2022/06/09 01:03:33;;;;;;;0.00;0.00;;;14.20;90.50;;;;;;5031001;28;20049;-71
2022/06/09 01:06:06;;;;;;;0.05;0.05;;;14.20;90.40;;;;;;5035771;28;20440;-71
2022/06/09 01:08:34;;;;;;;0.00;0.00;;;14.20;90.40;;;;;;5032618;28;20080;-71
2022/06/09 01:11:00;;;;;;;0.00;0.00;;;14.20;90.30;;;;;;5015012;28;20065;-71
2022/06/09 01:13:25;;;;;;;0.00;0.00;;;14.10;90.30;;;;;;5027100;28;20589;-71
2022/06/09 01:16:02;;;;;;;0.00;0.00;;;14.10;90.30;;;;;;5039546;28;20049;-71
2022/06/09 01:18:33;;;;;;;0.00;0.00;;;14.10;90.20;;;;;;5026528;28;20048;-71
2022/06/09 01:21:08;;;;;;;0.00;0.00;;;14.10;90.20;;;;;;5023013;28;20044;-71
2022/06/09 01:23:42;;;;;;;0.00;0.00;;;14.10;90.10;;;;;;5029641;28;20568;-71
2022/06/09 01:26:15;;;;;;;0.00;0.00;;;14.10;90.10;;;;;;5032992;28;20044;-71
2022/06/09 01:29:10;;;;;;;0.00;0.00;;;14.10;90.10;;;;;;5036043;28;20050;-72
2022/06/09 01:31:51;;;;;;;0.00;0.00;;;14.10;90.10;;;;;;5041956;28;20494;-71
2022/06/09 01:34:28;;;;;;;0.00;0.00;;;14.10;90.10;;;;;;5034625;28;20519;-71
2022/06/09 01:37:02;;;;;;;0.00;0.00;;;14.10;90.10;;;;;;5033965;28;20778;-71
2022/06/09 01:39:45;;;;;;;0.00;0.00;;;14.00;90.10;;;;;;5012715;28;20045;-71
2022/06/09 01:42:29;;;;;;;0.00;0.00;;;14.00;90.10;;;;;;5017336;28;20071;-71
2022/06/09 01:45:02;;;;;;;0.00;0.00;;;14.00;90.20;;;;;;5022716;28;20487;-71
2022/06/09 01:47:35;;;;;;;0.08;0.08;;;14.00;90.20;;;;;;5027986;28;20117;-71
2022/06/09 01:50:06;;;;;;;0.00;0.00;;;14.00;90.20;;;;;;5031210;28;20500;-71
2022/06/09 01:52:33;;;;;;;0.00;0.00;;;14.00;90.20;;;;;;5037669;28;20036;-71
2022/06/09 01:55:02;;;;;;;0.00;0.00;;;13.90;90.30;;;;;;5029961;28;20071;-71
2022/06/09 01:57:35;;;;;;;0.00;0.00;;;14.00;90.30;;;;;;5032746;28;20173;-71
2022/06/09 02:00:07;;;;;;;0.00;0.00;;;14.00;90.20;;;;;;5029155;28;20111;-71
2022/06/09 02:02:47;;;;;;;0.00;0.00;;;13.90;90.40;;;;;;5027631;28;20061;-71
2022/06/09 02:05:22;;;;;;;0.00;0.00;;;13.90;90.50;;;;;;5035394;28;20533;-70
2022/06/09 02:07:50;;;;;;;0.20;0.20;;;13.90;90.60;;;;;;5027876;28;20085;-71
2022/06/09 02:10:27;;;;;;;0.00;0.00;;;13.90;90.80;;;;;;5011617;28;20053;-71
2022/06/09 02:12:55;;;;;;;0.00;0.00;;;13.90;91.00;;;;;;5034533;28;20041;-71
2022/06/09 02:15:28;;;;;;;0.00;0.00;;;13.90;91.00;;;;;;5028916;28;20054;-71
2022/06/09 02:17:54;;;;;;;0.00;0.00;;;13.80;91.00;;;;;;5030151;28;20095;-71
2022/06/09 02:20:22;;;;;;;0.00;0.00;;;13.80;91.30;;;;;;5032148;28;20045;-71
2022/06/09 02:22:48;;;;;;;0.10;0.10;;;13.80;91.30;;;;;;5030854;28;20037;-71
2022/06/09 02:25:14;;;;;;;0.20;0.20;;;13.80;91.40;;;;;;5029735;28;20056;-72
2022/06/09 02:27:40;;;;;;;0.00;0.00;;;13.80;91.40;;;;;;5029768;28;20545;-71
2022/06/09 02:30:07;;;;;;;0.00;0.00;;;13.70;91.30;;;;;;5030180;28;20144;-71
2022/06/09 02:32:34;;;;;;;0.00;0.00;;;13.70;91.30;;;;;;5038117;28;20049;-71
2022/06/09 02:35:00;;;;;;;0.00;0.00;;;13.70;91.20;;;;;;5041757;28;20123;-71
2022/06/09 02:37:25;;;;;;;0.00;0.00;;;13.60;91.30;;;;;;5036025;28;20128;-71
2022/06/09 02:39:51;;;;;;;0.00;0.00;;;13.60;91.40;;;;;;5027795;28;20114;-71
2022/06/09 02:42:17;;;;;;;0.00;0.00;;;13.60;91.50;;;;;;5028580;28;20133;-71
2022/06/09 02:44:42;;;;;;;0.00;0.00;;;13.60;91.50;;;;;;5027781;28;20044;-71
2022/06/09 02:47:08;;;;;;;0.00;0.00;;;13.60;91.40;;;;;;5031019;28;20545;-71
2022/06/09 02:49:34;;;;;;;0.00;0.00;;;13.60;91.50;;;;;;5028514;28;20042;-71
2022/06/09 02:51:59;;;;;;;0.00;0.00;;;13.50;91.50;;;;;;5030197;28;20402;-71
2022/06/09 02:54:25;;;;;;;0.00;0.00;;;13.50;91.50;;;;;;5032556;28;20073;-71
2022/06/09 02:56:50;;;;;;;0.00;0.00;;;13.50;91.50;;;;;;5030736;28;20621;-71
2022/06/09 02:59:16;;;;;;;0.00;0.00;;;13.50;91.40;;;;;;5037322;28;20041;-71
2022/06/09 03:01:41;;;;;;;0.00;0.00;;;13.50;91.40;;;;;;5032736;28;20065;-71
2022/06/09 03:04:08;;;;;;;0.00;0.00;;;13.50;91.40;;;;;;5038634;28;20091;-71
2022/06/09 03:06:34;;;;;;;0.00;0.00;;;13.50;91.50;;;;;;5036989;28;20524;-71
2022/06/09 03:09:00;;;;;;;0.10;0.10;;;13.50;91.60;;;;;;5030879;28;20045;-72
2022/06/09 03:11:26;;;;;;;0.00;0.00;;;13.50;91.90;;;;;;5009965;28;20149;-72
2022/06/09 03:13:52;;;;;;;0.00;0.00;;;13.40;92.00;;;;;;5027714;28;20447;-72
2022/06/09 03:16:18;;;;;;;0.00;0.00;;;13.50;92.00;;;;;;5020778;28;20038;-72
2022/06/09 03:18:44;;;;;;;0.10;0.10;;;13.50;92.00;;;;;;5018802;28;20105;-72
2022/06/09 03:21:12;;;;;;;0.00;0.00;;;13.50;92.10;;;;;;5040109;28;20413;-72
2022/06/09 03:23:38;;;;;;;0.00;0.00;;;13.40;92.10;;;;;;5028698;28;20053;-72
2022/06/09 03:26:05;;;;;;;0.00;0.00;;;13.50;92.10;;;;;;5029468;28;20063;-72
2022/06/09 03:28:30;;;;;;;0.00;0.00;;;13.50;92.20;;;;;;5025791;28;20042;-71
2022/06/09 03:30:57;;;;;;;0.10;0.10;;;13.50;92.20;;;;;;5043537;28;20127;-71
2022/06/09 03:33:22;;;;;;;0.00;0.00;;;13.50;92.10;;;;;;5040365;28;20465;-71
2022/06/09 03:35:48;;;;;;;0.10;0.10;;;13.40;92.00;;;;;;5033188;28;20053;-72
2022/06/09 03:38:14;;;;;;;0.00;0.00;;;13.40;92.10;;;;;;5033876;28;20081;-72
2022/06/09 03:40:40;;;;;;;0.00;0.00;;;13.40;92.10;;;;;;5032620;28;20148;-72
2022/06/09 03:43:06;;;;;;;0.03;0.03;;;13.40;92.10;;;;;;5033202;28;20445;-71
2022/06/09 03:45:33;;;;;;;0.00;0.00;;;13.50;92.00;;;;;;5017858;28;20042;-72
2022/06/09 03:47:58;;;;;;;0.08;0.08;;;13.50;92.00;;;;;;5025189;28;20044;-72
2022/06/09 03:50:26;;;;;;;0.00;0.00;;;13.50;91.90;;;;;;5040166;28;20042;-72
2022/06/09 03:52:52;;;;;;;0.00;0.00;;;13.50;91.90;;;;;;5039437;28;20512;-72
2022/06/09 03:55:18;;;;;;;0.00;0.00;;;13.50;91.90;;;;;;5031711;28;20037;-72
2022/06/09 03:57:44;;;;;;;0.10;0.10;;;13.50;92.10;;;;;;5032849;28;20037;-72
2022/06/09 04:00:18;;;;;;;0.00;0.00;;;13.50;92.00;;;;;;5044886;28;20042;-72
2022/06/09 04:02:44;;;;;;;0.00;0.00;;;13.40;92.00;;;;;;5010498;28;20069;-72
2022/06/09 04:05:10;;;;;;;0.00;0.00;;;13.50;92.00;;;;;;5035684;28;20079;-72
2022/06/09 04:07:36;;;;;;;0.10;0.10;;;13.40;92.00;;;;;;5042042;28;20474;-72
2022/06/09 04:10:01;;;;;;;0.00;0.00;;;13.50;92.00;;;;;;5033365;28;20087;-71
2022/06/09 04:12:27;;;;;;;2.35;1.55;;;13.50;92.10;;;;;;5031568;28;20498;-71
2022/06/09 04:14:53;;;;;;;0.00;0.00;;;13.40;92.20;;;;;;5038658;28;20072;-71
2022/06/09 04:17:18;;;;;;;0.22;0.22;;;13.40;92.30;;;;;;5034897;28;20830;-71
2022/06/09 04:19:44;;;;;;;0.00;0.00;;;13.50;92.30;;;;;;5035994;28;20037;-71
2022/06/09 04:22:10;;;;;;;0.10;0.10;;;13.50;92.50;;;;;;5045826;28;20099;-72
2022/06/09 04:24:35;;;;;;;0.00;0.00;;;13.50;92.50;;;;;;5048326;28;20053;-72
2022/06/09 04:27:02;;;;;;;0.00;0.00;;;13.50;92.50;;;;;;5031173;28;20038;-73
2022/06/09 04:29:28;;;;;;;0.10;0.10;;;13.60;92.50;;;;;;5022031;28;20399;-73
2022/06/09 04:31:53;;;;;;;0.00;0.00;;;13.60;92.50;;;;;;5011777;28;20100;-73
2022/06/09 04:34:19;;;;;;;0.00;0.00;;;13.60;92.50;;;;;;5032395;28;20077;-70
2022/06/09 04:36:45;;;;;;;0.00;0.00;;;13.60;92.50;;;;;;5029224;28;20398;-71
2022/06/09 04:39:11;;;;;;;0.00;0.00;;;13.60;92.40;;;;;;5029221;28;20037;-70
2022/06/09 04:41:37;;;;;;;0.00;0.00;;;13.60;92.50;;;;;;5031432;28;20463;-72
2022/06/09 04:44:04;;;;;;;0.00;0.00;;;13.60;92.70;;;;;;5030098;28;20041;-71
2022/06/09 04:46:30;;;;;;;0.00;0.00;;;13.60;92.70;;;;;;5032256;28;20045;-70
2022/06/09 04:48:56;;;;;;;0.10;0.10;;;13.70;92.70;;;;;;5032853;28;20504;-71
2022/06/09 04:51:25;;;;;;;0.00;0.00;;;13.70;92.80;;;;;;5029421;28;20041;-71
2022/06/09 04:53:51;;;;;;;0.00;0.00;;;13.70;92.80;;;;;;5027608;28;20053;-71
2022/06/09 04:56:18;;;;;;;0.10;0.10;;;13.80;92.90;;;;;;5030950;28;20046;-71
2022/06/09 04:58:43;;;;;;;0.00;0.00;;;13.80;92.90;;;;;;5028095;28;20037;-71
2022/06/09 05:01:21;;;;;;;0.00;0.00;;;13.80;92.90;;;;;;5024227;28;20083;-71
2022/06/09 05:03:47;;;;;;;0.13;0.13;;;13.80;92.90;;;;;;5029855;28;20107;-71
2022/06/09 05:06:13;;;;;;;0.00;0.00;;;13.80;93.00;;;;;;5028792;28;20522;-71
2022/06/09 05:08:40;;;;;;;0.00;0.00;;;13.90;93.10;;;;;;5040227;28;20084;-71
2022/06/09 05:11:06;;;;;;;0.00;0.00;;;13.90;93.10;;;;;;5013581;28;20502;-71
2022/06/09 05:13:31;;;;;;;0.43;0.43;;;14.00;93.20;;;;;;5011015;28;20499;-72
2022/06/09 05:15:57;;;;;;;0.00;0.00;;;14.00;93.30;;;;;;5028084;28;20043;-71
2022/06/09 05:18:26;;;;;;;0.00;0.00;;;14.10;93.20;;;;;;5030159;28;20076;-71
2022/06/09 05:20:54;;;;;;;0.08;0.08;;;14.10;93.30;;;;;;5016128;28;20045;-71
2022/06/09 05:23:20;;;;;;;0.00;0.00;;;14.10;93.40;;;;;;5034731;28;20133;-71
2022/06/09 05:25:50;;;;;;;0.10;0.10;;;14.20;93.40;;;;;;5018957;28;20551;-71
2022/06/09 05:28:18;;;;;;;0.28;0.28;;;14.20;93.30;;;;;;5046531;28;20043;-72
2022/06/09 05:30:43;;;;;;;0.00;0.00;;;14.20;93.40;;;;;;5040083;28;20048;-71
2022/06/09 05:33:09;;;;;;;0.00;0.00;;;14.20;93.50;;;;;;5036424;28;20049;-72
2022/06/09 05:35:35;;;;;;;0.00;0.00;;;14.30;93.60;;;;;;5029768;28;20509;-72
2022/06/09 05:46:15;;;;;;;2.25;0.82;;;14.50;93.50;;;;;;5027084;28;20487;-70
2022/06/09 05:48:42;;;;;;;0.55;0.47;;;14.60;93.40;;;;;;5029281;28;20123;-72
2022/06/09 05:51:09;;;;;;;0.30;0.30;;;14.60;93.40;;;;;;5029408;28;20037;-72
2022/06/09 05:53:35;;;;;;;0.10;0.10;;;14.60;93.50;;;;;;5028240;28;20049;-72
2022/06/09 05:56:02;;;;;;;0.00;0.00;;;14.70;93.50;;;;;;5029263;28;20056;-72
2022/06/09 05:58:27;;;;;;;0.03;0.03;;;14.80;93.50;;;;;;5027990;28;20100;-71
2022/06/09 06:00:53;;;;;;;0.13;0.13;;;14.90;93.50;;;;;;5030075;28;20096;-71
2022/06/09 06:03:18;;;;;;;0.10;0.10;;;14.90;93.40;;;;;;5029262;28;20507;-71
2022/06/09 06:08:29;;;;;;;0.00;0.00;;;15.10;93.30;;;;;;5029072;28;20089;-71
2022/06/09 06:10:56;;;;;;;0.47;0.45;;;15.10;93.10;;;;;;5029211;28;20080;-73
2022/06/09 06:13:22;;;;;;;0.00;0.00;;;15.10;92.70;;;;;;5031688;28;20102;-70
2022/06/09 06:15:47;;;;;;;0.03;0.03;;;15.00;92.60;;;;;;5029703;28;20045;-73
2022/06/09 06:18:13;;;;;;;0.05;0.05;;;15.10;92.50;;;;;;5028735;28;20731;-69
2022/06/09 06:20:39;;;;;;;0.08;0.08;;;15.10;91.90;;;;;;5027922;28;20042;-71
2022/06/09 06:23:05;;;;;;;0.00;0.00;;;15.10;91.60;;;;;;5027353;28;20041;-72
2022/06/09 06:25:30;;;;;;;0.00;0.00;;;15.20;91.50;;;;;;5029005;28;20037;-72
2022/06/09 06:27:57;;;;;;;0.25;0.25;;;15.30;91.30;;;;;;5015082;28;20115;-72
2022/06/09 06:30:23;;;;;;;0.32;0.32;;;15.30;91.20;;;;;;5021263;28;20124;-72
2022/06/09 06:32:50;;;;;;;3.95;0.63;;;15.30;91.00;;;;;;5028521;28;20467;-72
2022/06/09 06:35:16;;;;;;;0.22;0.22;;;15.40;91.20;;;;;;5031358;28;20045;-72
2022/06/09 06:37:42;;;;;;;0.08;0.08;;;15.40;90.00;;;;;;5028550;28;20052;-72
2022/06/09 06:40:10;;;;;;;0.00;0.00;;;15.50;90.20;;;;;;5026132;28;20045;-73
2022/06/09 06:42:36;;;;;;;0.00;0.00;;;15.60;89.20;;;;;;5025294;28;20566;-73
2022/06/09 06:45:02;;;;;;;0.00;0.00;;;15.50;89.00;;;;;;5017942;28;20045;-72
2022/06/09 06:47:28;;;;;;;0.05;0.05;;;15.60;88.80;;;;;;5026586;28;20048;-71
2022/06/09 06:49:55;;;;;;;0.00;0.00;;;15.60;88.80;;;;;;5026941;28;20100;-71
2022/06/09 06:52:21;;;;;;;1.45;0.85;;;15.70;89.00;;;;;;5026791;28;21818;-72
2022/06/09 06:54:47;;;;;;;0.00;0.00;;;15.70;88.10;;;;;;5009738;28;20053;-73
2022/06/09 06:57:12;;;;;;;0.00;0.00;;;15.80;88.00;;;;;;5025432;28;20046;-69
2022/06/09 06:59:38;;;;;;;0.00;0.00;;;15.70;87.00;;;;;;5026347;28;20063;-70
2022/06/09 07:02:03;;;;;;;0.50;0.50;;;15.80;86.70;;;;;;5030014;28;20041;-69
2022/06/09 07:04:29;;;;;;;0.00;0.00;;;15.80;86.50;;;;;;5024912;28;20069;-69
2022/06/09 07:06:56;;;;;;;0.00;0.00;;;15.90;86.90;;;;;;5026198;28;20517;-69
2022/06/09 07:09:22;;;;;;;0.08;0.08;;;16.00;86.80;;;;;;5038096;28;20047;-69
2022/06/09 07:11:48;;;;;;;0.00;0.00;;;16.00;86.40;;;;;;5022434;28;20065;-70
2022/06/09 07:14:13;;;;;;;0.00;0.00;;;16.00;85.80;;;;;;5033130;28;20041;-69
2022/06/09 07:16:39;;;;;;;0.20;0.20;;;16.00;85.90;;;;;;5038809;28;20049;-70
2022/06/09 07:19:05;;;;;;;0.25;0.25;;;16.00;85.40;;;;;;5048806;28;20045;-70
2022/06/09 07:21:31;;;;;;;0.00;0.00;;;16.00;85.60;;;;;;5022721;28;20047;-70
2022/06/09 07:23:58;;;;;;;0.63;0.63;;;16.00;85.20;;;;;;5025135;28;20620;-69
2022/06/09 07:26:23;;;;;;;0.05;0.05;;;16.10;85.60;;;;;;5032540;28;21705;-69
2022/06/09 07:28:49;;;;;;;0.20;0.20;;;16.10;85.30;;;;;;5044296;28;20038;-69
2022/06/09 07:31:15;;;;;;;0.00;0.00;;;16.10;84.90;;;;;;5041685;28;20033;-68
2022/06/09 07:33:41;;;;;;;0.63;0.63;;;16.20;85.40;;;;;;5045606;28;20051;-68
2022/06/09 07:36:12;;;;;;;0.00;0.00;;;16.20;85.20;;;;;;5034540;28;20099;-69
2022/06/09 07:38:38;;;;;;;0.00;0.00;;;16.20;85.00;;;;;;5028645;28;20052;-69
2022/06/09 07:41:05;;;;;;;1.40;1.30;;;16.30;85.20;;;;;;5039635;28;20046;-68
2022/06/09 07:43:30;;;;;;;0.00;0.00;;;16.30;85.60;;;;;;5038790;28;20042;-68
2022/06/09 07:45:56;;;;;;;0.03;0.03;;;16.40;84.70;;;;;;5030523;28;20410;-68
2022/06/09 07:48:22;;;;;;;0.40;0.40;;;16.40;84.20;;;;;;5047411;28;20049;-69
2022/06/09 07:50:49;;;;;;;0.00;0.00;;;16.40;84.30;;;;;;5048086;28;20489;-69
2022/06/09 07:53:16;;;;;;;0.00;0.00;;;16.40;84.80;;;;;;5039192;28;20127;-68
2022/06/09 07:55:43;;;;;;;0.00;0.00;;;16.40;84.60;;;;;;5034863;28;20069;-67
2022/06/09 07:58:08;;;;;;;0.00;0.00;;;16.40;84.10;;;;;;5041767;28;20040;-69
2022/06/09 08:00:34;;;;;;;0.00;0.00;;;16.40;84.30;;;;;;5035540;28;20426;-68
2022/06/09 08:03:03;;;;;;;0.20;0.20;;;16.50;83.70;;;;;;5042735;28;20049;-67
2022/06/09 08:05:30;;;;;;;0.00;0.00;;;16.50;83.70;;;;;;5019024;28;20041;-69
2022/06/09 08:07:55;;;;;;;0.00;0.00;;;16.40;83.70;;;;;;5043587;28;20044;-68
2022/06/09 08:10:24;;;;;;;0.00;0.00;;;16.40;84.10;;;;;;5032307;28;20050;-67
2022/06/09 08:12:52;;;;;;;0.10;0.10;;;16.50;83.80;;;;;;5032536;28;20391;-67
2022/06/09 08:15:19;;;;;;;0.28;0.28;;;16.60;84.30;;;;;;5034268;28;20108;-68
2022/06/09 08:17:45;;;;;;;0.20;0.20;;;16.60;83.50;;;;;;5024390;28;20045;-68
2022/06/09 08:20:12;;;;;;;0.52;0.52;;;16.60;82.60;;;;;;5040492;28;20430;-68
2022/06/09 08:22:43;;;;;;;0.00;0.00;;;16.60;82.80;;;;;;5044523;28;20073;-68
2022/06/09 08:25:12;;;;;;;0.00;0.00;;;16.70;83.10;;;;;;5022448;28;20049;-69
2022/06/09 08:27:38;;;;;;;0.00;0.00;;;16.80;82.70;;;;;;5028691;28;20454;-68
2022/06/09 08:30:05;;;;;;;0.80;0.73;;;16.70;83.00;;;;;;5036965;28;20033;-67
2022/06/09 08:32:31;;;;;;;0.00;0.00;;;16.70;82.40;;;;;;5032260;28;20047;-68
2022/06/09 08:34:56;;;;;;;0.38;0.38;;;16.70;82.40;;;;;;5033384;28;20120;-69
2022/06/09 08:37:22;;;;;;;0.03;0.03;;;16.70;81.40;;;;;;5036390;28;20046;-69
2022/06/09 08:39:48;;;;;;;0.00;0.00;;;16.70;82.20;;;;;;5029565;28;20037;-69
2022/06/09 08:42:16;;;;;;;0.32;0.28;;;16.80;82.60;;;;;;5035727;28;20084;-69
2022/06/09 08:44:55;;;;;;;0.20;0.20;;;16.70;82.30;;;;;;5025761;28;20068;-68
2022/06/09 08:47:38;;;;;;;0.00;0.00;;;16.70;82.70;;;;;;5023847;28;20049;-68
2022/06/09 08:50:07;;;;;;;0.00;0.00;;;16.80;82.20;;;;;;5025318;28;20058;-68
2022/06/09 08:52:48;;;;;;;0.00;0.00;;;16.70;81.70;;;;;;5034580;28;20041;-67
2022/06/09 08:55:20;;;;;;;0.00;0.00;;;16.90;82.30;;;;;;5033799;28;20057;-68
2022/06/09 08:57:46;;;;;;;0.00;0.00;;;16.80;80.50;;;;;;5028590;28;20045;-68
2022/06/09 09:00:16;;;;;;;7.28;2.25;;;16.90;81.80;;;;;;5020282;28;20507;-68
2022/06/09 09:02:49;;;;;;;0.10;0.10;;;16.80;80.90;;;;;;5032371;28;20081;-68
2022/06/09 09:05:32;;;;;;;0.00;0.00;;;16.80;81.20;;;;;;5029386;28;20596;-68
2022/06/09 09:08:02;;;;;;;2.25;1.55;;;16.90;80.80;;;;;;5037679;28;20414;-69
2022/06/09 09:11:07;;;;;;;0.00;0.00;;;16.90;80.40;;;;;;5024772;28;20140;-68
2022/06/09 09:13:43;;;;;;;0.00;0.00;;;16.90;80.10;;;;;;5028318;28;20053;-69
2022/06/09 09:16:26;;;;;;;0.00;0.00;;;16.90;80.60;;;;;;5015573;28;20050;-68
2022/06/09 09:18:53;;;;;;;3.90;1.02;;;17.00;80.00;;;;;;5012217;28;20041;-68
2022/06/09 09:21:44;;;;;;;0.00;0.00;;;17.00;79.80;;;;;;5027133;28;20534;-69
2022/06/09 09:24:19;;;;;;;0.15;0.15;;;17.00;79.40;;;;;;5015911;28;20037;-68
2022/06/09 09:27:12;;;;;;;0.00;0.00;;;17.10;79.30;;;;;;5019377;28;20046;-68
2022/06/09 09:29:52;;;;;;;0.00;0.00;;;17.10;80.10;;;;;;5022336;28;20103;-68
2022/06/09 09:32:22;;;;;;;0.00;0.00;;;17.20;77.70;;;;;;5016764;28;20576;-67
2022/06/09 09:34:49;;;;;;;0.00;0.00;;;17.10;77.50;;;;;;5016182;28;20041;-67
2022/06/09 09:37:20;;;;;;;1.35;1.10;;;17.20;78.20;;;;;;5018501;28;20076;-67
2022/06/09 09:39:55;;;;;;;0.00;0.00;;;17.10;78.40;;;;;;5009246;28;20811;-68
2022/06/09 09:42:25;;;;;;;0.00;0.00;;;17.30;78.50;;;;;;5022332;28;20083;-67
2022/06/09 09:45:03;;;;;;;0.00;0.00;;;17.30;78.90;;;;;;5029671;28;20111;-64
2022/06/09 09:47:30;;;;;;;0.00;0.00;;;17.40;78.30;;;;;;5011320;28;20057;-67
2022/06/09 09:50:05;;;;;;;0.00;0.00;;;17.40;78.40;;;;;;5016628;28;20094;-67
2022/06/09 09:52:39;;;;;;;0.00;0.00;;;17.40;77.60;;;;;;5019201;28;20124;-67
2022/06/09 09:55:25;;;;;;;0.00;0.00;;;17.50;77.30;;;;;;5024867;28;20041;-66
2022/06/09 09:58:19;;;;;;;0.00;0.00;;;17.30;76.70;;;;;;5028295;28;20269;-67
2022/06/09 10:00:47;;;;;;;0.00;0.00;;;17.20;77.00;;;;;;5032619;28;20080;-66
2022/06/09 10:09:13;;;;;;;0.20;0.20;;;17.30;76.80;;;;;;5019684;28;20053;-66
2022/06/09 10:11:53;;;;;;;0.00;0.00;;;17.40;77.70;;;;;;5017973;28;20124;-66
2022/06/09 10:14:46;;;;;;;0.00;0.00;;;17.20;76.10;;;;;;5009678;28;20281;-66
2022/06/09 10:17:48;;;;;;;15.52;0.73;;;17.30;76.80;;;;;;5009742;28;20056;-66
2022/06/09 10:20:14;;;;;;;0.73;0.73;;;17.40;76.00;;;;;;5025828;28;20512;-66
2022/06/09 10:22:42;;;;;;;0.00;0.00;;;17.30;75.60;;;;;;5032067;28;20041;-66
2022/06/09 10:25:24;;;;;;;0.00;0.00;;;17.40;74.90;;;;;;5019658;28;20646;-66
2022/06/09 10:27:57;;;;;;;0.00;0.00;;;17.40;75.80;;;;;;5040827;28;20079;-66
2022/06/09 10:30:35;;;;;;;0.00;0.00;;;17.60;76.90;;;;;;5030361;28;20132;-67
2022/06/09 10:33:11;;;;;;;0.00;0.00;;;17.70;75.90;;;;;;5013528;28;20113;-66
2022/06/09 10:35:49;;;;;;;0.00;0.00;;;17.70;76.10;;;;;;5027291;28;20041;-66
2022/06/09 10:38:36;;;;;;;0.00;0.00;;;17.70;75.40;;;;;;5035305;28;20485;-66
2022/06/09 10:41:09;;;;;;;0.10;0.10;;;17.80;76.10;;;;;;5034399;28;20699;-68
2022/06/09 10:43:38;;;;;;;0.00;0.00;;;17.70;75.50;;;;;;5028828;28;20517;-68
2022/06/09 10:46:24;;;;;;;0.00;0.00;;;17.60;75.70;;;;;;5017874;28;20037;-68
2022/06/09 10:55:45;;;;;;;0.00;0.00;;;17.80;75.60;;;;;;5016679;28;20132;-69
2022/06/09 10:58:31;;;;;;;0.05;0.05;;;17.90;74.10;;;;;;5025562;28;20430;-68
2022/06/09 11:00:58;;;;;;;0.00;0.00;;;17.60;75.30;;;;;;5041652;28;20041;-67
2022/06/09 11:03:28;;;;;;;0.00;0.00;;;17.70;74.10;;;;;;5028470;28;20042;-69
2022/06/09 11:06:25;;;;;;;0.00;0.00;;;17.40;74.20;;;;;;5029792;28;20084;-68
2022/06/09 11:09:21;;;;;;;0.25;0.25;;;17.50;74.90;;;;;;5028397;28;20053;-66
2022/06/09 11:12:21;;;;;;;0.10;0.10;;;17.60;75.30;;;;;;5027794;28;20152;-67
2022/06/09 11:15:07;;;;;;;0.00;0.00;;;17.50;74.00;;;;;;5028278;28;20049;-67
2022/06/09 11:17:47;;;;;;;0.00;0.00;;;17.60;75.10;;;;;;5019449;28;20053;-67
2022/06/09 11:20:22;;;;;;;0.10;0.10;;;17.60;73.40;;;;;;5028230;28;20099;-67
2022/06/09 11:22:53;;;;;;;0.00;0.00;;;17.80;74.50;;;;;;5027523;28;20410;-67
2022/06/09 11:25:37;;;;;;;0.00;0.00;;;17.90;74.20;;;;;;5027688;28;20049;-66
2022/06/09 11:28:40;;;;;;;0.00;0.00;;;17.90;72.30;;;;;;5023652;28;20046;-68
2022/06/09 11:31:16;;;;;;;0.00;0.00;;;18.00;73.80;;;;;;5019982;28;20136;-67
2022/06/09 11:33:58;;;;;;;0.00;0.00;;;18.10;74.20;;;;;;5022079;28;20133;-67
2022/06/09 11:36:53;;;;;;;0.10;0.10;;;18.10;74.30;;;;;;5013282;28;20048;-68
2022/06/09 11:39:42;;;;;;;0.00;0.00;;;18.20;73.10;;;;;;5035046;28;20041;-68
2022/06/09 11:42:41;;;;;;;0.10;0.10;;;18.20;73.00;;;;;;5027400;28;20045;-67
2022/06/09 11:45:24;;;;;;;0.20;0.20;;;18.10;73.60;;;;;;5020910;28;20045;-67
2022/06/09 11:47:52;;;;;;;0.00;0.00;;;18.10;72.30;;;;;;5018494;28;20072;-67
2022/06/09 11:50:21;;;;;;;0.00;0.00;;;18.20;71.90;;;;;;5031825;28;20041;-68
2022/06/09 11:52:48;;;;;;;0.00;0.00;;;18.30;71.60;;;;;;5027097;28;20490;-68
2022/06/09 11:58:41;;;;;;;0.43;0.43;;;18.30;71.40;;;;;;5038078;28;20593;-69
2022/06/09 12:01:16;;;;;;;0.00;0.00;;;18.50;73.20;;;;;;5037539;28;20046;-68
2022/06/09 12:04:02;;;;;;;0.00;0.00;;;18.60;73.10;;;;;;5030752;28;20041;-68
2022/06/09 12:06:56;;;;;;;0.00;0.00;;;18.60;71.90;;;;;;5030120;28;20384;-68
2022/06/09 12:09:45;;;;;;;0.00;0.00;;;18.50;71.90;;;;;;5008611;28;20053;-68
2022/06/09 12:12:52;;;;;;;0.00;0.00;;;18.50;70.60;;;;;;5031404;28;20085;-68
2022/06/09 12:15:25;;;;;;;0.00;0.00;;;18.50;72.80;;;;;;5018047;28;20059;-68
2022/06/09 12:17:56;;;;;;;0.00;0.00;;;18.50;71.70;;;;;;5030918;28;20046;-69
2022/06/09 12:20:45;;;;;;;;;;;18.60;72.30;;;;;;5038073;28;20099;-68
2022/06/09 12:23:34;;;;;;;0.00;0.00;;;18.60;70.80;;;;;;5018139;28;20012;-69
2022/06/09 12:26:09;;;;;;;0.00;0.00;;;18.60;70.40;;;;;;5029584;28;20045;-69
2022/06/09 12:28:50;;;;;;;0.00;0.00;;;18.70;69.80;;;;;;5029078;28;20526;-69
2022/06/09 12:31:32;;;;;;;66.93;1.60;;;18.80;70.60;;;;;;5019922;28;20491;-69
2022/06/09 12:34:11;;;;;;;0.70;0.65;;;18.70;69.20;;;;;;5040003;28;20819;-69
2022/06/09 12:36:56;;;;;;;0.00;0.00;;;19.00;70.10;;;;;;5026209;28;20132;-67
2022/06/09 12:39:25;;;;;;;0.20;0.20;;;19.00;68.90;;;;;;5012285;28;20083;-68
2022/06/09 12:41:58;;;;;;;0.00;0.00;;;19.00;67.90;;;;;;5031110;28;20042;-68
2022/06/09 12:44:30;;;;;;;0.00;0.00;;;19.10;67.20;;;;;;5029458;28;20517;-68
2022/06/09 12:47:16;;;;;;;0.00;0.00;;;19.00;68.40;;;;;;5027132;28;20076;-68
2022/06/09 12:49:48;;;;;;;0.00;0.00;;;19.00;67.80;;;;;;5016027;28;20056;-68
2022/06/09 12:52:43;;;;;;;0.00;0.00;;;19.10;68.10;;;;;;5049478;28;20044;-68
2022/06/09 12:55:20;;;;;;;0.00;0.00;;;19.00;68.10;;;;;;5033317;28;20057;-67
2022/06/09 12:57:49;;;;;;;0.10;0.10;;;19.00;67.40;;;;;;5031434;28;20099;-67
2022/06/09 13:00:17;;;;;;;0.20;0.20;;;18.90;66.90;;;;;;5030356;28;20050;-67
2022/06/09 13:02:44;;;;;;;0.00;0.00;;;19.00;68.30;;;;;;5031270;28;20052;-67
2022/06/09 13:05:14;;;;;;;0.32;0.20;;;18.80;67.20;;;;;;5031043;28;20042;-68
2022/06/09 13:08:18;;;;;;;0.00;0.00;;;18.90;68.50;;;;;;5031111;28;20049;-67
2022/06/09 13:10:46;;;;;;;0.63;0.63;;;19.00;67.50;;;;;;5030827;28;20053;-68
2022/06/09 13:13:20;;;;;;;0.85;0.85;;;18.90;65.70;;;;;;5028767;28;20046;-75
2022/06/09 13:16:12;;;;;;;0.00;0.00;;;19.00;66.90;;;;;;5032400;28;20115;-73
2022/06/09 13:18:42;;;;;;;0.00;0.00;;;19.00;67.30;;;;;;5014456;28;20761;-74
2022/06/09 13:21:23;;;;;;;0.00;0.00;;;19.00;66.70;;;;;;5039011;28;20095;-75
2022/06/09 13:23:52;;;;;;;0.15;0.15;;;19.10;67.50;;;;;;5038061;28;20057;-75
2022/06/09 13:26:27;;;;;;;0.10;0.10;;;19.30;66.30;;;;;;5010398;28;20052;-74
2022/06/09 13:28:57;;;;;;;0.40;0.40;;;19.30;65.30;;;;;;5028537;28;20125;-74
2022/06/09 13:31:42;;;;;;;0.00;0.00;;;19.60;66.30;;;;;;5028062;28;20681;-73
2022/06/09 13:34:13;;;;;;;0.00;0.00;;;19.50;63.40;;;;;;5023287;28;20042;-73
2022/06/09 13:36:54;;;;;;;0.00;0.00;;;19.60;63.50;;;;;;5023845;28;20132;-74